Time;durP1;ratioP1;P1;durP2;ratioP2;P2;SDS_P1;SDS_P2;PMS_P1;PMS_P2;Temp;Humidity;BMP_temperature;BMP_pressure;BME280_temperature;BME280_humidity;BME280_pressure;Samples;Min_cycle;Max_cycle;Signal;HPM_P1;HPM_P2
2022/06/14 00:01:40;;;;;;;4.77;2.37;;;11.10;99.90;;;;;;4821424;29;20201;-60
2022/06/14 00:04:08;;;;;;;5.97;2.63;;;11.00;99.90;;;;;;4811568;29;20250;-61
2022/06/14 00:06:39;;;;;;;5.30;2.57;;;11.00;99.90;;;;;;4824626;29;20229;-60
2022/06/14 00:09:08;;;;;;;5.90;2.93;;;11.00;99.90;;;;;;4809633;29;20220;-61
2022/06/14 00:15:24;;;;;;;3.17;2.40;;;10.90;99.90;;;;;;4802112;29;20657;-61
2022/06/14 00:18:19;;;;;;;7.70;2.73;;;10.90;99.90;;;;;;4827408;29;20197;-61
2022/06/14 00:20:50;;;;;;;4.73;2.87;;;10.80;99.90;;;;;;4814096;29;20199;-61
2022/06/14 00:28:12;;;;;;;5.50;2.90;;;10.80;99.90;;;;;;4809263;29;20353;-60
2022/06/14 00:30:42;;;;;;;4.37;2.57;;;10.80;99.90;;;;;;4809589;29;20288;-61
2022/06/14 00:37:04;;;;;;;6.80;2.63;;;10.60;99.90;;;;;;4808958;29;20197;-61
2022/06/14 00:39:33;;;;;;;3.80;2.40;;;10.50;99.90;;;;;;4808992;29;20204;-61
2022/06/14 00:46:15;;;;;;;4.10;2.57;;;10.50;99.90;;;;;;4808805;29;20178;-60
2022/06/14 00:48:54;;;;;;;4.03;2.67;;;10.50;99.90;;;;;;4808739;29;20266;-61
2022/06/14 00:51:26;;;;;;;4.93;2.67;;;10.40;99.90;;;;;;4809176;29;20209;-61
2022/06/14 00:54:32;;;;;;;3.07;2.67;;;10.30;99.90;;;;;;4809054;29;20694;-61
2022/06/14 00:57:04;;;;;;;5.13;2.60;;;10.40;99.90;;;;;;4808926;29;20593;-60
2022/06/14 00:59:56;;;;;;;4.43;2.63;;;10.30;99.90;;;;;;4808346;29;20205;-61
2022/06/14 01:02:36;;;;;;;6.13;2.70;;;10.20;99.90;;;;;;4819353;29;20201;-61
2022/06/14 01:05:09;;;;;;;3.03;2.60;;;10.20;99.90;;;;;;4816578;29;20608;-61
2022/06/14 01:07:42;;;;;;;3.73;2.70;;;10.20;99.90;;;;;;4812853;29;20197;-60
2022/06/14 01:13:42;;;;;;;3.03;2.70;;;10.20;99.90;;;;;;4792093;29;20248;-61
2022/06/14 01:21:00;;;;;;;3.80;2.50;;;10.10;99.90;;;;;;4810798;29;20242;-60
2022/06/14 01:23:31;;;;;;;5.73;3.00;;;10.10;99.90;;;;;;4792146;29;20209;-61
2022/06/14 01:26:11;;;;;;;4.97;2.77;;;10.10;99.90;;;;;;4808177;29;20221;-60
2022/06/14 01:28:42;;;;;;;5.73;2.93;;;10.10;99.90;;;;;;4808365;29;20208;-61
2022/06/14 01:31:11;;;;;;;10.80;3.47;;;10.10;99.90;;;;;;4808030;29;20209;-61
2022/06/14 01:33:44;;;;;;;8.90;2.70;;;10.10;99.90;;;;;;4791837;29;20721;-61
2022/06/14 01:36:39;;;;;;;3.53;2.87;;;10.00;99.90;;;;;;4821930;29;20243;-61
2022/06/14 01:39:11;;;;;;;6.00;3.00;;;10.00;99.90;;;;;;4826157;29;20717;-61
2022/06/14 01:45:50;;;;;;;5.00;3.00;;;9.90;99.90;;;;;;4781590;29;20189;-61
2022/06/14 01:48:23;;;;;;;6.70;3.23;;;9.90;99.90;;;;;;4808770;29;20209;-61
2022/06/14 02:01:22;;;;;;;3.57;2.57;;;9.90;99.90;;;;;;4822247;29;20200;-61
2022/06/14 02:06:51;;;;;;;8.60;3.23;;;9.70;99.90;;;;;;4842331;29;20204;-61
2022/06/14 02:13:27;;;;;;;4.10;2.87;;;9.60;99.90;;;;;;4807149;29;20232;-61
2022/06/14 02:19:38;;;;;;;3.37;2.80;;;9.60;99.90;;;;;;4816232;29;20654;-61
2022/06/14 02:22:10;;;;;;;3.93;2.93;;;9.50;99.90;;;;;;4823632;29;20206;-61
2022/06/14 02:24:43;;;;;;;7.47;3.10;;;9.50;99.90;;;;;;4816034;29;20209;-61
2022/06/14 02:27:22;;;;;;;3.10;2.80;;;9.50;99.90;;;;;;4807822;29;20200;-61
2022/06/14 02:29:56;;;;;;;3.77;2.90;;;9.50;99.90;;;;;;4791031;29;20680;-61
2022/06/14 02:32:29;;;;;;;5.53;3.00;;;9.40;99.90;;;;;;4807125;29;20697;-61
2022/06/14 02:35:07;;;;;;;4.13;2.77;;;9.40;99.90;;;;;;4808548;29;20238;-61
2022/06/14 02:37:41;;;;;;;4.40;3.37;;;9.40;99.90;;;;;;4817593;29;20193;-61
2022/06/14 02:40:15;;;;;;;3.13;2.90;;;9.40;99.90;;;;;;4793420;29;20285;-61
2022/06/14 02:42:52;;;;;;;4.87;2.87;;;9.40;99.90;;;;;;4807051;29;20292;-61
2022/06/14 02:45:24;;;;;;;6.73;3.30;;;9.40;99.90;;;;;;4806679;29;20212;-61
2022/06/14 02:47:57;;;;;;;4.03;2.93;;;9.40;99.90;;;;;;4823358;29;20699;-61
2022/06/14 02:50:34;;;;;;;8.37;3.27;;;9.30;99.90;;;;;;4814206;29;20200;-61
2022/06/14 02:53:06;;;;;;;6.80;3.13;;;9.40;99.90;;;;;;4817834;29;20240;-61
2022/06/14 02:55:43;;;;;;;4.40;3.00;;;9.30;99.90;;;;;;4808922;29;20689;-61
2022/06/14 02:58:18;;;;;;;7.97;3.00;;;9.30;99.90;;;;;;4808619;29;20188;-60
2022/06/14 03:00:50;;;;;;;4.07;3.37;;;9.30;99.90;;;;;;4818553;29;20212;-62
2022/06/14 03:03:22;;;;;;;9.27;3.87;;;9.20;99.90;;;;;;4817934;29;20200;-61
2022/06/14 03:05:57;;;;;;;8.40;3.60;;;9.20;99.90;;;;;;4822552;29;20220;-61
2022/06/14 03:08:30;;;;;;;8.10;3.90;;;9.20;99.90;;;;;;4814098;29;20213;-61
2022/06/14 03:11:08;;;;;;;5.93;3.50;;;9.10;99.90;;;;;;4805514;29;20208;-61
2022/06/14 03:13:53;;;;;;;7.17;3.17;;;9.10;99.90;;;;;;4806502;29;20241;-61
2022/06/14 03:16:32;;;;;;;5.03;3.30;;;9.10;99.90;;;;;;4816774;29;20340;-61
2022/06/14 03:19:07;;;;;;;3.53;3.23;;;9.10;99.90;;;;;;4825120;29;20222;-61
2022/06/14 03:21:46;;;;;;;6.17;3.50;;;9.10;99.90;;;;;;4815072;29;20293;-61
2022/06/14 03:24:24;;;;;;;4.37;2.93;;;9.10;99.90;;;;;;4806696;29;20617;-61
2022/06/14 03:27:00;;;;;;;4.33;3.40;;;9.10;99.90;;;;;;4790077;29;20197;-61
2022/06/14 03:29:37;;;;;;;5.67;3.10;;;9.10;99.90;;;;;;4796422;29;20201;-61
2022/06/14 03:32:12;;;;;;;7.97;3.07;;;9.00;99.90;;;;;;4807570;29;20654;-61
2022/06/14 03:34:44;;;;;;;3.40;3.10;;;9.10;99.90;;;;;;4792467;29;20679;-61
2022/06/14 03:37:15;;;;;;;4.10;3.10;;;9.00;99.90;;;;;;4805071;29;20245;-61
2022/06/14 03:39:49;;;;;;;5.90;3.00;;;9.00;99.90;;;;;;4806133;29;20701;-61
2022/06/14 03:42:20;;;;;;;4.60;3.47;;;9.00;99.90;;;;;;4790228;29;20212;-60
2022/06/14 03:44:48;;;;;;;5.97;3.13;;;8.90;99.90;;;;;;4818198;29;20210;-61
2022/06/14 03:47:21;;;;;;;4.87;3.40;;;8.90;99.90;;;;;;4812033;29;20213;-61
2022/06/14 03:49:53;;;;;;;3.43;3.23;;;8.90;99.90;;;;;;4806241;29;20197;-61
2022/06/14 03:52:48;;;;;;;9.10;3.27;;;8.90;99.90;;;;;;4806131;29;20205;-61
2022/06/14 03:55:33;;;;;;;7.20;3.57;;;8.90;99.90;;;;;;4806050;29;20205;-61
2022/06/14 03:58:13;;;;;;;7.30;3.90;;;9.00;99.90;;;;;;4789671;29;20638;-61
2022/06/14 04:00:50;;;;;;;3.77;3.47;;;8.90;99.90;;;;;;4792399;29;20295;-61
2022/06/14 04:03:41;;;;;;;5.27;3.30;;;8.90;99.90;;;;;;4815340;29;20283;-61
2022/06/14 04:06:19;;;;;;;5.77;3.50;;;9.00;99.90;;;;;;4792001;29;20190;-61
2022/06/14 04:09:06;;;;;;;7.00;3.20;;;9.00;99.90;;;;;;4808446;29;20280;-61
2022/06/14 04:11:46;;;;;;;5.83;3.67;;;9.00;99.90;;;;;;4789643;29;20198;-61
2022/06/14 04:14:33;;;;;;;5.43;3.33;;;9.00;99.90;;;;;;4795386;29;20352;-61
2022/06/14 04:17:11;;;;;;;5.80;3.57;;;9.10;99.90;;;;;;4819106;29;20270;-61
2022/06/14 04:20:02;;;;;;;3.53;3.20;;;9.10;99.90;;;;;;4809804;29;20673;-61
2022/06/14 04:22:42;;;;;;;6.83;3.53;;;9.20;99.90;;;;;;4792127;29;20588;-61
2022/06/14 04:25:20;;;;;;;6.40;4.03;;;9.20;99.90;;;;;;4815242;29;20273;-61
2022/06/14 04:27:55;;;;;;;7.37;3.80;;;9.20;99.90;;;;;;4808548;29;20630;-61
2022/06/14 04:30:29;;;;;;;7.27;4.20;;;9.30;99.90;;;;;;4804346;29;20192;-61
2022/06/14 04:33:08;;;;;;;8.67;4.27;;;9.40;99.90;;;;;;4800980;29;20561;-61
2022/06/14 04:35:44;;;;;;;5.93;3.50;;;9.40;99.90;;;;;;4827053;29;20235;-60
2022/06/14 04:38:19;;;;;;;6.77;3.70;;;9.50;99.90;;;;;;4810801;29;20248;-61
2022/06/14 04:40:54;;;;;;;5.53;4.23;;;9.60;99.90;;;;;;4815648;29;20260;-61
2022/06/14 04:43:27;;;;;;;8.67;4.20;;;9.60;99.90;;;;;;4815833;29;20204;-61
2022/06/14 04:46:02;;;;;;;7.40;4.30;;;9.80;99.90;;;;;;4819317;29;20206;-61
2022/06/14 04:48:35;;;;;;;5.80;4.07;;;9.90;99.90;;;;;;4808577;29;20193;-61
2022/06/14 04:51:08;;;;;;;6.93;4.40;;;9.90;99.90;;;;;;4808922;29;20208;-61
2022/06/14 04:53:44;;;;;;;5.03;4.10;;;10.00;99.90;;;;;;4814923;29;20258;-61
2022/06/14 04:56:19;;;;;;;5.83;3.53;;;10.20;99.90;;;;;;4818005;29;20196;-61
2022/06/14 04:58:55;;;;;;;9.77;4.00;;;10.20;99.90;;;;;;4826574;29;20200;-62
2022/06/14 05:01:31;;;;;;;5.47;3.80;;;10.30;99.90;;;;;;4817036;29;20646;-61
2022/06/14 05:04:10;;;;;;;10.23;4.30;;;10.40;99.90;;;;;;4814902;29;20641;-61
2022/06/14 05:06:43;;;;;;;7.67;4.10;;;10.60;99.90;;;;;;4824445;29;20212;-60
2022/06/14 05:09:16;;;;;;;7.40;4.10;;;10.70;99.90;;;;;;4835049;29;20553;-61
2022/06/14 05:11:53;;;;;;;9.50;4.20;;;10.80;99.90;;;;;;4808267;29;20225;-62
2022/06/14 05:14:27;;;;;;;5.20;4.40;;;10.90;99.90;;;;;;4815337;29;20261;-61
2022/06/14 05:17:02;;;;;;;9.07;4.27;;;11.00;99.90;;;;;;4798291;29;20228;-61
2022/06/14 05:19:36;;;;;;;5.50;4.10;;;11.10;99.90;;;;;;4795311;29;20579;-61
2022/06/14 05:22:09;;;;;;;5.80;4.07;;;11.30;99.90;;;;;;4820218;29;20304;-61
2022/06/14 05:24:39;;;;;;;10.93;5.50;;;11.40;99.90;;;;;;4808307;29;20543;-61
2022/06/14 05:27:33;;;;;;;9.00;4.23;;;11.60;99.90;;;;;;4808273;29;20202;-61
2022/06/14 05:30:06;;;;;;;6.13;4.00;;;11.80;99.90;;;;;;4819975;29;20279;-61
2022/06/14 05:32:43;;;;;;;5.47;3.90;;;12.00;99.90;;;;;;4807616;29;20591;-61
2022/06/14 05:35:26;;;;;;;11.90;4.37;;;12.30;99.90;;;;;;4797566;29;20212;-61
2022/06/14 05:38:03;;;;;;;5.43;3.80;;;12.50;99.90;;;;;;4802667;29;20209;-61
2022/06/14 05:40:38;;;;;;;9.37;4.63;;;12.60;99.90;;;;;;4815140;29;20287;-61
2022/06/14 05:43:12;;;;;;;9.77;4.00;;;12.80;99.90;;;;;;4800541;29;20238;-62
2022/06/14 05:45:44;;;;;;;6.10;4.07;;;12.80;99.90;;;;;;4826190;29;20202;-61
2022/06/14 05:48:20;;;;;;;11.53;4.00;;;12.90;99.90;;;;;;4816865;29;20225;-61
2022/06/14 05:50:54;;;;;;;8.00;3.33;;;13.10;99.90;;;;;;4811426;29;20296;-61
2022/06/14 05:53:29;;;;;;;6.20;3.07;;;13.40;99.90;;;;;;4807849;29;20197;-61
2022/06/14 05:56:09;;;;;;;7.40;2.90;;;13.60;99.90;;;;;;4807533;29;20210;-60
2022/06/14 05:58:43;;;;;;;4.73;3.23;;;13.80;99.90;;;;;;4807631;29;20718;-61
2022/06/14 06:01:17;;;;;;;9.43;3.30;;;14.00;99.90;;;;;;4795460;29;20209;-60
2022/06/14 06:04:01;;;;;;;9.97;3.30;;;14.20;99.90;;;;;;4807789;29;20210;-60
2022/06/14 06:06:33;;;;;;;5.13;2.77;;;14.30;99.90;;;;;;4807095;29;20205;-61
2022/06/14 06:09:04;;;;;;;6.60;3.00;;;14.50;99.90;;;;;;4791266;29;20296;-61
2022/06/14 06:11:37;;;;;;;5.70;3.17;;;14.60;99.90;;;;;;4798003;29;20318;-63
2022/06/14 06:14:13;;;;;;;7.90;3.30;;;14.60;99.90;;;;;;4806392;29;20240;-64
2022/06/14 06:16:47;;;;;;;13.37;3.43;;;14.80;99.90;;;;;;4806299;29;20204;-61
2022/06/14 06:19:19;;;;;;;6.40;3.37;;;14.90;99.90;;;;;;4805968;29;20226;-61
2022/06/14 06:21:54;;;;;;;9.73;3.00;;;14.90;99.90;;;;;;4808891;29;20667;-62
2022/06/14 07:01:18;;;;;;;6.97;2.37;;;15.90;99.90;;;;;;5097771;27;20558;-64
2022/06/14 07:03:51;;;;;;;6.53;2.50;;;16.60;99.90;;;;;;5101358;28;20199;-65
2022/06/14 07:06:26;;;;;;;4.17;2.40;;;16.60;99.90;;;;;;5108327;28;20204;-63
2022/06/14 07:08:57;;;;;;;4.30;2.40;;;16.70;99.90;;;;;;5097366;28;20191;-54
2022/06/14 07:11:30;;;;;;;4.33;2.50;;;16.80;99.90;;;;;;5106340;28;20203;-53
2022/06/14 07:14:03;;;;;;;6.03;2.70;;;17.00;99.90;;;;;;5108713;28;20615;-63
2022/06/14 07:16:38;;;;;;;3.73;2.20;;;17.10;99.90;;;;;;5110768;28;20198;-62
2022/06/14 07:19:20;;;;;;;4.47;2.20;;;17.20;99.90;;;;;;5077030;28;20305;-62
2022/06/14 07:21:56;;;;;;;8.50;2.70;;;17.20;99.90;;;;;;5071839;28;20311;-62
2022/06/14 07:24:29;;;;;;;2.40;2.07;;;17.20;99.90;;;;;;5089860;28;20195;-62
2022/06/14 07:27:07;;;;;;;2.73;2.10;;;17.30;99.90;;;;;;5072110;28;20614;-62
2022/06/14 07:29:39;;;;;;;5.73;2.20;;;17.30;99.90;;;;;;5090189;28;20240;-63
2022/06/14 07:32:14;;;;;;;4.23;2.40;;;17.50;99.90;;;;;;5090276;28;20183;-63
2022/06/14 07:34:56;;;;;;;2.20;2.00;;;17.60;99.90;;;;;;5090071;28;20199;-62
2022/06/14 07:37:33;;;;;;;4.13;2.20;;;17.70;99.90;;;;;;5060113;28;20221;-62
2022/06/14 07:40:08;;;;;;;3.37;2.00;;;17.70;99.90;;;;;;5069514;28;20216;-63
2022/06/14 07:42:46;;;;;;;2.50;2.13;;;17.80;99.90;;;;;;5069602;28;20286;-62
2022/06/14 07:45:22;;;;;;;5.00;2.50;;;17.90;99.90;;;;;;5069789;28;20190;-62
2022/06/14 07:48:00;;;;;;;5.13;2.70;;;18.00;99.90;;;;;;5085415;28;20190;-62
2022/06/14 07:50:35;;;;;;;7.13;2.30;;;18.30;99.90;;;;;;5069518;28;20267;-62
2022/06/14 07:53:11;;;;;;;5.77;2.33;;;18.40;99.90;;;;;;5069187;28;20207;-62
2022/06/14 07:55:45;;;;;;;5.33;1.90;;;18.60;99.90;;;;;;5069368;28;20227;-63
2022/06/14 07:58:20;;;;;;;4.87;2.33;;;18.70;99.90;;;;;;5051667;28;20642;-63
2022/06/14 08:01:10;;;;;;;1.73;1.63;;;18.80;99.90;;;;;;5063278;28;20224;-63
2022/06/14 08:03:47;;;;;;;4.13;2.13;;;18.80;99.90;;;;;;5083047;28;20196;-62
2022/06/14 08:06:19;;;;;;;4.53;2.27;;;18.80;99.90;;;;;;5075646;28;20237;-62
2022/06/14 08:08:53;;;;;;;4.47;1.97;;;19.00;99.90;;;;;;5076019;28;20180;-62
2022/06/14 08:11:34;;;;;;;6.33;2.17;;;19.20;99.90;;;;;;5075877;28;20204;-62
2022/06/14 08:14:09;;;;;;;3.27;2.30;;;19.40;99.90;;;;;;5075834;28;20282;-62
2022/06/14 08:16:38;;;;;;;3.73;2.30;;;19.50;99.90;;;;;;5075639;28;20191;-63
2022/06/14 08:19:12;;;;;;;3.60;2.00;;;19.50;99.90;;;;;;5075679;28;20555;-63
2022/06/14 08:21:48;;;;;;;8.53;2.30;;;19.50;99.90;;;;;;5075402;28;20192;-63
2022/06/14 08:24:22;;;;;;;8.43;2.40;;;19.60;99.90;;;;;;5075608;28;20181;-63
2022/06/14 08:27:03;;;;;;;7.57;2.60;;;19.80;99.90;;;;;;5075360;28;20193;-63
2022/06/14 08:29:36;;;;;;;9.53;3.40;;;19.90;99.90;;;;;;5075116;28;20203;-63
2022/06/14 08:32:12;;;;;;;3.37;1.93;;;19.90;99.90;;;;;;5075117;28;20192;-62
2022/06/14 08:34:47;;;;;;;9.67;3.63;;;20.10;99.90;;;;;;5075022;28;20191;-63
2022/06/14 08:37:22;;;;;;;6.07;3.20;;;20.40;99.90;;;;;;5075434;28;20194;-62
2022/06/14 08:39:55;;;;;;;6.67;2.93;;;20.40;99.90;;;;;;5057301;28;20265;-62
2022/06/14 08:42:31;;;;;;;20.20;6.47;;;20.30;99.90;;;;;;5075227;28;20714;-63
2022/06/14 08:45:03;;;;;;;17.73;5.20;;;20.30;99.90;;;;;;5074968;28;20223;-62
2022/06/14 08:47:50;;;;;;;14.17;4.70;;;20.30;99.90;;;;;;5075503;28;20271;-63
2022/06/14 08:50:48;;;;;;;8.27;3.07;;;20.30;99.90;;;;;;5054000;28;20188;-62
2022/06/14 08:53:53;;;;;;;6.40;2.47;;;20.50;99.90;;;;;;5036941;28;20199;-62
2022/06/14 08:56:33;;;;;;;2.03;1.87;;;20.40;99.90;;;;;;5054511;28;20246;-62
2022/06/14 08:59:29;;;;;;;4.30;2.77;;;20.40;99.90;;;;;;5054777;28;20212;-62
2022/06/14 09:02:30;;;;;;;8.53;2.90;;;20.40;99.90;;;;;;5072541;28;20296;-62
2022/06/14 09:05:26;;;;;;;2.83;1.63;;;20.50;99.90;;;;;;5058869;28;20281;-62
2022/06/14 09:08:25;;;;;;;1.53;1.43;;;20.70;99.90;;;;;;5056710;28;20219;-62
2022/06/14 09:11:22;;;;;;;4.23;1.80;;;20.90;99.90;;;;;;5075042;28;20246;-62
2022/06/14 09:14:22;;;;;;;1.87;1.50;;;21.00;99.90;;;;;;5073863;28;20237;-62
2022/06/14 09:17:03;;;;;;;3.13;1.60;;;21.10;99.90;;;;;;5073300;28;20228;-63
2022/06/14 09:20:02;;;;;;;3.07;1.70;;;21.30;99.90;;;;;;5074684;28;20650;-63
2022/06/14 09:22:48;;;;;;;1.83;1.30;;;21.40;99.90;;;;;;5067572;28;20191;-62
2022/06/14 09:25:59;;;;;;;17.57;5.03;;;21.50;99.90;;;;;;5054721;28;20643;-62
2022/06/14 09:28:53;;;;;;;7.60;3.70;;;21.70;99.90;;;;;;5054372;28;20200;-63
2022/06/14 09:31:36;;;;;;;8.00;2.63;;;21.80;99.90;;;;;;5054822;28;20233;-62
2022/06/14 09:34:32;;;;;;;4.03;1.97;;;21.80;99.90;;;;;;5055590;28;20186;-62
2022/06/14 09:37:29;;;;;;;5.30;2.70;;;21.90;99.90;;;;;;5074094;28;20228;-62
2022/06/14 09:40:27;;;;;;;1.77;1.67;;;22.00;99.90;;;;;;5040616;28;20297;-63
2022/06/14 09:43:19;;;;;;;3.00;1.60;;;22.20;99.90;;;;;;5073082;28;20322;-60
2022/06/14 09:46:06;;;;;;;4.97;2.47;;;22.30;99.90;;;;;;5074299;28;20256;-60
2022/06/14 09:49:05;;;;;;;2.43;1.67;;;22.30;99.90;;;;;;5073942;28;20189;-61
2022/06/14 09:52:07;;;;;;;3.87;1.80;;;22.20;99.90;;;;;;4981369;28;20245;-60
2022/06/14 09:55:16;;;;;;;4.07;2.43;;;22.40;99.90;;;;;;5053722;28;20236;-61
2022/06/14 09:58:13;;;;;;;4.50;2.00;;;22.80;99.90;;;;;;5054201;28;20279;-60
2022/06/14 10:00:49;;;;;;;11.80;2.00;;;22.90;99.90;;;;;;5071104;28;20266;-61
2022/06/14 10:03:48;;;;;;;1.80;1.70;;;22.90;99.90;;;;;;5074363;28;20198;-60
2022/06/14 10:06:40;;;;;;;3.73;1.90;;;23.10;99.90;;;;;;5054166;28;20210;-61
2022/06/14 10:09:24;;;;;;;2.83;1.50;;;23.10;99.90;;;;;;5054119;28;20302;-61
2022/06/14 10:12:18;;;;;;;4.80;1.80;;;23.20;99.90;;;;;;5055967;28;20216;-60
2022/06/14 10:14:55;;;;;;;2.57;1.60;;;23.60;99.90;;;;;;5073408;28;20200;-61
2022/06/14 10:17:56;;;;;;;2.70;1.90;;;23.70;99.90;;;;;;5073666;28;20625;-61
2022/06/14 10:20:44;;;;;;;1.90;1.80;;;23.60;99.90;;;;;;5073375;28;20215;-61
2022/06/14 10:23:48;;;;;;;2.53;1.63;;;23.50;99.90;;;;;;5056904;28;20185;-61
2022/06/14 10:29:45;;;;;;;1.98;1.65;;;23.90;99.90;;;;;;5053519;28;20182;-61
2022/06/14 10:32:40;;;;;;;4.72;1.98;;;24.00;99.90;;;;;;5035672;28;20211;-61
2022/06/14 10:35:18;;;;;;;2.10;1.52;;;24.10;99.90;;;;;;5070277;28;20284;-61
2022/06/14 10:38:11;;;;;;;4.40;1.80;;;24.30;99.90;;;;;;5073416;28;20240;-61
2022/06/14 10:40:49;;;;;;;3.03;1.83;;;24.60;99.90;;;;;;5073396;28;20296;-61
2022/06/14 10:43:28;;;;;;;2.35;1.77;;;24.70;99.90;;;;;;5055790;28;20193;-61
2022/06/14 10:46:08;;;;;;;11.80;1.98;;;24.30;99.90;;;;;;5055154;28;20664;-61
2022/06/14 10:48:56;;;;;;;2.05;1.70;;;24.10;99.90;;;;;;5055484;28;20198;-61
2022/06/14 10:52:02;;;;;;;2.20;1.98;;;24.00;99.90;;;;;;5073467;28;20701;-61
2022/06/14 10:54:42;;;;;;;3.22;1.73;;;24.40;99.90;;;;;;4994694;28;20284;-61
2022/06/14 10:57:25;;;;;;;1.73;1.63;;;24.70;99.90;;;;;;5064718;28;20202;-61
2022/06/14 11:00:16;;;;;;;4.95;2.15;;;24.70;99.90;;;;;;5055391;28;20328;-61
2022/06/14 11:03:05;;;;;;;4.35;1.92;;;24.70;99.90;;;;;;5073150;28;20303;-61
2022/06/14 11:05:50;;;;;;;2.58;1.90;;;25.00;99.90;;;;;;5055028;28;20230;-61
2022/06/14 11:08:42;;;;;;;2.38;1.70;;;24.70;99.90;;;;;;5054843;28;20299;-61
2022/06/14 11:11:48;;;;;;;2.95;1.80;;;24.60;99.90;;;;;;5072850;28;20207;-61
2022/06/14 11:14:23;;;;;;;3.67;1.70;;;24.70;99.90;;;;;;5010781;28;20204;-60
2022/06/14 11:17:07;;;;;;;5.28;1.98;;;24.60;99.90;;;;;;5065841;28;20664;-61
2022/06/14 11:19:45;;;;;;;2.80;1.80;;;24.50;99.90;;;;;;5072935;28;20271;-61
2022/06/14 11:22:33;;;;;;;2.13;1.90;;;24.50;99.90;;;;;;5072957;28;20216;-61
2022/06/14 11:25:11;;;;;;;2.60;1.70;;;24.20;99.90;;;;;;5073490;28;20188;-60
2022/06/14 11:27:50;;;;;;;3.27;1.90;;;24.30;99.90;;;;;;5073331;28;20189;-61
2022/06/14 11:30:27;;;;;;;3.47;1.90;;;24.30;99.90;;;;;;5073548;28;20227;-61
2022/06/14 11:33:05;;;;;;;2.80;2.10;;;24.50;99.90;;;;;;5073232;28;20188;-60
2022/06/14 11:35:55;;;;;;;2.03;1.83;;;24.70;99.90;;;;;;5073238;28;20190;-61
2022/06/14 11:38:57;;;;;;;3.07;2.20;;;24.80;99.90;;;;;;5076955;28;20185;-61
2022/06/14 11:41:35;;;;;;;2.67;1.70;;;24.80;99.90;;;;;;5076400;28;20207;-61
2022/06/14 11:44:16;;;;;;;3.03;1.83;;;24.60;99.90;;;;;;5076983;28;20267;-61
2022/06/14 11:46:58;;;;;;;1.90;1.80;;;24.70;99.90;;;;;;5076711;28;20180;-61
2022/06/14 11:49:37;;;;;;;2.07;1.87;;;24.40;99.90;;;;;;5076506;28;20660;-61
2022/06/14 11:52:26;;;;;;;8.47;2.20;;;24.30;99.90;;;;;;5076709;28;20184;-61
2022/06/14 11:55:08;;;;;;;4.63;2.20;;;24.30;99.90;;;;;;5076465;28;20191;-61
2022/06/14 11:57:45;;;;;;;3.20;1.90;;;24.20;99.90;;;;;;5075879;28;20274;-61
2022/06/14 12:00:26;;;;;;;2.10;1.93;;;24.30;99.90;;;;;;5075907;28;20260;-61
2022/06/14 12:03:34;;;;;;;2.17;1.87;;;24.60;99.90;;;;;;5076190;28;20215;-61
2022/06/14 12:06:11;;;;;;;3.20;2.00;;;24.20;99.90;;;;;;5075988;28;20556;-61
2022/06/14 12:09:06;;;;;;;4.27;2.20;;;24.10;99.90;;;;;;5076356;28;20249;-63
2022/06/14 12:11:41;;;;;;;4.20;2.17;;;23.80;99.90;;;;;;5076455;28;20195;-62
2022/06/14 12:14:37;;;;;;;4.07;1.93;;;23.80;99.90;;;;;;5076168;28;20591;-62
2022/06/14 12:17:19;;;;;;;3.43;2.33;;;24.00;99.90;;;;;;5076050;28;20193;-62
2022/06/14 12:19:53;;;;;;;4.50;2.40;;;23.90;99.90;;;;;;5057782;28;20183;-62
2022/06/14 12:22:31;;;;;;;4.63;2.10;;;24.00;99.90;;;;;;5075972;28;20213;-62
2022/06/14 12:27:56;;;;;;;1.93;1.83;;;24.20;99.90;;;;;;5058000;28;20281;-63
2022/06/14 12:30:28;;;;;;;5.17;2.10;;;24.30;99.90;;;;;;5075973;28;20222;-63
2022/06/14 12:33:03;;;;;;;4.63;2.27;;;24.50;99.90;;;;;;5075674;28;20230;-62
2022/06/14 12:35:41;;;;;;;5.60;2.20;;;24.30;99.90;;;;;;5075369;28;20276;-63
2022/06/14 12:38:17;;;;;;;3.60;2.30;;;24.20;99.90;;;;;;5075670;28;20189;-62
2022/06/14 12:40:53;;;;;;;4.13;2.13;;;23.80;99.90;;;;;;5075386;28;20178;-62
2022/06/14 12:43:26;;;;;;;3.10;2.20;;;23.90;99.90;;;;;;5091073;28;20283;-62
2022/06/14 12:46:02;;;;;;;3.90;2.30;;;24.00;99.90;;;;;;5057511;28;20187;-62
2022/06/14 12:48:40;;;;;;;2.13;1.93;;;24.00;99.90;;;;;;5075207;28;20193;-62
2022/06/14 12:51:14;;;;;;;5.93;2.03;;;24.10;99.90;;;;;;5075495;28;20222;-63
2022/06/14 12:53:49;;;;;;;5.03;2.30;;;24.30;99.90;;;;;;5075258;28;20199;-63
2022/06/14 12:56:22;;;;;;;4.23;2.20;;;24.50;99.90;;;;;;5040756;28;20199;-63
2022/06/14 12:59:14;;;;;;;3.17;2.07;;;24.40;99.90;;;;;;5074652;28;20276;-63
2022/06/14 13:01:49;;;;;;;5.70;2.37;;;24.20;99.90;;;;;;5074999;28;20297;-63
2022/06/14 13:04:22;;;;;;;2.63;1.97;;;23.90;99.90;;;;;;5075201;28;20200;-62
2022/06/14 13:07:09;;;;;;;2.13;1.80;;;23.80;99.90;;;;;;5057036;28;20189;-62
2022/06/14 13:09:51;;;;;;;5.47;2.00;;;24.10;99.90;;;;;;5074942;28;20267;-62
2022/06/14 13:12:32;;;;;;;2.33;2.13;;;24.00;99.90;;;;;;5074949;28;20679;-62
2022/06/14 13:15:09;;;;;;;3.30;1.60;;;24.00;99.90;;;;;;5057337;28;20189;-62
2022/06/14 13:18:01;;;;;;;2.10;1.90;;;24.00;99.90;;;;;;5065773;28;20292;-62
2022/06/14 13:20:39;;;;;;;4.07;2.03;;;23.90;99.90;;;;;;5037081;28;20331;-63
2022/06/14 13:23:19;;;;;;;5.60;2.20;;;23.70;99.90;;;;;;5054428;28;20209;-62
2022/06/14 13:26:06;;;;;;;5.00;1.80;;;23.80;99.90;;;;;;5055165;28;20200;-63
2022/06/14 13:28:51;;;;;;;8.23;2.00;;;24.20;99.90;;;;;;5036571;28;20182;-62
2022/06/14 13:31:39;;;;;;;3.50;2.30;;;24.50;99.90;;;;;;5054815;28;20678;-62
2022/06/14 13:34:24;;;;;;;4.03;2.17;;;24.60;99.90;;;;;;5054648;28;20657;-63
2022/06/14 13:37:11;;;;;;;3.80;2.10;;;24.90;99.90;;;;;;5054538;28;20198;-63
2022/06/14 13:39:49;;;;;;;2.00;1.53;;;25.30;99.90;;;;;;5054390;28;20679;-63
2022/06/14 13:42:25;;;;;;;7.17;2.20;;;25.50;99.90;;;;;;5054587;28;20227;-63
2022/06/14 13:44:57;;;;;;;3.47;1.90;;;25.40;99.90;;;;;;5020164;28;20199;-62
2022/06/14 13:47:34;;;;;;;3.73;1.70;;;25.20;99.90;;;;;;5036458;28;20668;-63
2022/06/14 13:50:08;;;;;;;1.93;1.80;;;25.20;99.90;;;;;;5054302;28;20199;-62
2022/06/14 13:52:41;;;;;;;4.37;2.00;;;25.20;99.90;;;;;;5054201;28;20206;-63
2022/06/14 13:55:21;;;;;;;2.10;1.80;;;25.20;99.90;;;;;;5069238;28;20202;-63
2022/06/14 13:57:54;;;;;;;2.50;2.00;;;25.30;99.90;;;;;;5053862;28;20203;-63
2022/06/14 14:00:32;;;;;;;4.03;2.10;;;25.30;99.90;;;;;;5053413;28;20235;-63
2022/06/14 14:03:20;;;;;;;2.83;1.83;;;25.10;99.90;;;;;;5054042;28;20271;-62
2022/06/14 14:05:53;;;;;;;4.70;2.00;;;24.80;99.90;;;;;;5036554;28;20196;-63
2022/06/14 14:08:29;;;;;;;2.57;1.90;;;24.60;99.90;;;;;;5053652;28;20219;-63
2022/06/14 14:11:06;;;;;;;2.00;1.80;;;24.80;99.90;;;;;;5053746;28;20193;-62
2022/06/14 14:13:39;;;;;;;3.53;1.80;;;25.30;99.90;;;;;;5053593;28;20688;-63
2022/06/14 14:16:15;;;;;;;4.27;2.23;;;25.40;99.90;;;;;;5053603;28;20290;-63
2022/06/14 14:19:00;;;;;;;5.07;1.73;;;25.60;99.90;;;;;;5053956;28;20187;-62
2022/06/14 14:21:37;;;;;;;2.37;2.03;;;25.80;99.80;;;;;;5054249;28;20197;-63
2022/06/14 14:24:31;;;;;;;1.70;1.60;;;25.90;99.90;;;;;;5053718;28;20728;-62
2022/06/14 14:27:06;;;;;;;3.77;1.67;;;26.20;99.90;;;;;;5051947;28;20208;-63
2022/06/14 14:29:42;;;;;;;5.40;2.00;;;26.30;99.90;;;;;;5053699;28;20180;-63
2022/06/14 14:32:17;;;;;;;2.30;1.70;;;26.20;99.90;;;;;;5053724;28;20203;-63
2022/06/14 14:34:51;;;;;;;6.00;2.10;;;26.10;99.90;;;;;;5071575;28;20219;-63
2022/06/14 14:37:25;;;;;;;1.90;1.80;;;26.00;99.90;;;;;;5073380;28;20194;-63
2022/06/14 14:40:15;;;;;;;2.80;1.70;;;26.10;99.90;;;;;;5073447;28;20195;-63
2022/06/14 14:43:07;;;;;;;4.77;1.73;;;26.30;99.90;;;;;;5073538;28;20306;-63
2022/06/14 14:45:41;;;;;;;2.60;1.60;;;26.40;99.40;;;;;;5073297;28;20200;-63
2022/06/14 14:48:20;;;;;;;2.60;1.80;;;26.50;99.90;;;;;;5053482;28;20200;-63
2022/06/14 14:51:02;;;;;;;3.63;1.80;;;26.30;99.40;;;;;;5053664;28;20222;-63
2022/06/14 14:53:38;;;;;;;4.93;2.07;;;26.30;99.00;;;;;;5086490;28;20276;-63
2022/06/14 14:56:14;;;;;;;10.07;1.60;;;26.30;99.90;;;;;;5073380;28;20192;-63
2022/06/14 14:58:52;;;;;;;2.20;1.70;;;26.30;99.90;;;;;;5073376;28;20628;-63
2022/06/14 15:07:22;;;;;;;2.10;1.53;;;26.60;98.00;;;;;;5052984;28;20193;-63
2022/06/14 15:10:33;;;;;;;2.03;1.77;;;26.50;98.00;;;;;;5064189;28;20212;-63
2022/06/14 15:13:03;;;;;;;5.00;1.80;;;26.40;99.20;;;;;;5056202;28;20208;-62
2022/06/14 15:16:11;;;;;;;4.03;1.80;;;26.20;97.90;;;;;;5081107;28;20599;-62
2022/06/14 15:22:17;;;;;;;1.70;1.50;;;26.50;97.20;;;;;;5057077;28;20374;-63
2022/06/14 15:32:38;;;;;;;8.73;1.80;;;26.70;99.00;;;;;;5057047;28;20185;-63
2022/06/14 15:35:36;;;;;;;1.90;1.80;;;27.10;99.90;;;;;;5038818;28;20216;-63
2022/06/14 15:38:25;;;;;;;2.50;1.87;;;27.10;99.90;;;;;;5071441;28;20223;-63
2022/06/14 15:41:18;;;;;;;2.17;1.80;;;27.20;99.90;;;;;;5071212;28;20611;-61
2022/06/14 15:44:25;;;;;;;1.93;1.80;;;26.80;96.30;;;;;;5076250;28;20220;-61